sensor_id;sensor_type;location;lat;lon;timestamp;P1;durP1;ratioP1;P2;durP2;ratioP2
33826;SDS011;20128;45.582;5.298;2023-08-21T00:01:09;10.98;;;5.50;;
33826;SDS011;20128;45.582;5.298;2023-08-21T00:03:34;14.88;;;5.10;;
33826;SDS011;20128;45.582;5.298;2023-08-21T00:06:00;10.75;;;5.25;;
33826;SDS011;20128;45.582;5.298;2023-08-21T00:08:25;7.95;;;4.93;;
33826;SDS011;20128;45.582;5.298;2023-08-21T00:10:51;11.88;;;5.90;;
33826;SDS011;20128;45.582;5.298;2023-08-21T00:13:17;9.60;;;5.20;;
33826;SDS011;20128;45.582;5.298;2023-08-21T00:15:43;7.53;;;4.88;;
33826;SDS011;20128;45.582;5.298;2023-08-21T00:18:09;14.32;;;5.57;;
33826;SDS011;20128;45.582;5.298;2023-08-21T00:20:38;7.65;;;5.15;;
33826;SDS011;20128;45.582;5.298;2023-08-21T00:23:07;8.68;;;5.30;;
33826;SDS011;20128;45.582;5.298;2023-08-21T00:25:33;11.73;;;5.30;;
33826;SDS011;20128;45.582;5.298;2023-08-21T00:27:59;9.57;;;5.57;;
33826;SDS011;20128;45.582;5.298;2023-08-21T00:30:25;12.90;;;5.20;;
33826;SDS011;20128;45.582;5.298;2023-08-21T00:32:50;10.15;;;5.20;;
33826;SDS011;20128;45.582;5.298;2023-08-21T00:35:16;15.30;;;5.50;;
33826;SDS011;20128;45.582;5.298;2023-08-21T00:37:42;9.13;;;4.85;;
33826;SDS011;20128;45.582;5.298;2023-08-21T00:40:07;10.85;;;5.20;;
33826;SDS011;20128;45.582;5.298;2023-08-21T00:42:33;10.88;;;5.70;;
33826;SDS011;20128;45.582;5.298;2023-08-21T00:44:59;12.65;;;5.78;;
33826;SDS011;20128;45.582;5.298;2023-08-21T00:47:24;13.88;;;5.57;;
33826;SDS011;20128;45.582;5.298;2023-08-21T00:49:50;10.68;;;5.20;;
33826;SDS011;20128;45.582;5.298;2023-08-21T00:52:16;11.25;;;5.68;;
33826;SDS011;20128;45.582;5.298;2023-08-21T00:54:43;14.18;;;5.68;;
33826;SDS011;20128;45.582;5.298;2023-08-21T00:57:09;14.13;;;5.80;;
33826;SDS011;20128;45.582;5.298;2023-08-21T00:59:36;10.30;;;5.45;;
33826;SDS011;20128;45.582;5.298;2023-08-21T01:02:02;13.45;;;5.78;;
33826;SDS011;20128;45.582;5.298;2023-08-21T01:04:28;6.47;;;5.20;;
33826;SDS011;20128;45.582;5.298;2023-08-21T01:06:54;9.00;;;5.30;;
33826;SDS011;20128;45.582;5.298;2023-08-21T01:17:12;12.48;;;5.93;;
33826;SDS011;20128;45.582;5.298;2023-08-21T01:19:42;13.13;;;5.65;;
33826;SDS011;20128;45.582;5.298;2023-08-21T01:22:09;12.02;;;5.55;;
33826;SDS011;20128;45.582;5.298;2023-08-21T01:24:35;12.65;;;5.80;;
33826;SDS011;20128;45.582;5.298;2023-08-21T01:27:00;14.05;;;5.70;;
33826;SDS011;20128;45.582;5.298;2023-08-21T01:29:27;9.90;;;5.05;;
33826;SDS011;20128;45.582;5.298;2023-08-21T01:34:56;11.65;;;5.35;;
33826;SDS011;20128;45.582;5.298;2023-08-21T01:37:24;9.82;;;5.38;;
33826;SDS011;20128;45.582;5.298;2023-08-21T01:39:51;11.38;;;5.47;;
33826;SDS011;20128;45.582;5.298;2023-08-21T01:42:16;8.77;;;5.05;;
33826;SDS011;20128;45.582;5.298;2023-08-21T01:44:42;12.57;;;5.85;;
33826;SDS011;20128;45.582;5.298;2023-08-21T01:47:11;11.48;;;5.35;;
33826;SDS011;20128;45.582;5.298;2023-08-21T01:49:36;10.40;;;5.88;;
33826;SDS011;20128;45.582;5.298;2023-08-21T01:52:02;11.52;;;5.75;;
33826;SDS011;20128;45.582;5.298;2023-08-21T01:54:28;8.50;;;5.28;;
33826;SDS011;20128;45.582;5.298;2023-08-21T01:56:53;13.15;;;5.35;;
33826;SDS011;20128;45.582;5.298;2023-08-21T01:59:19;11.55;;;5.55;;
33826;SDS011;20128;45.582;5.298;2023-08-21T02:01:45;10.43;;;5.65;;
33826;SDS011;20128;45.582;5.298;2023-08-21T02:04:10;12.65;;;5.75;;
33826;SDS011;20128;45.582;5.298;2023-08-21T02:06:36;8.85;;;4.95;;
33826;SDS011;20128;45.582;5.298;2023-08-21T02:09:02;10.00;;;5.82;;
33826;SDS011;20128;45.582;5.298;2023-08-21T02:11:27;10.35;;;5.95;;
33826;SDS011;20128;45.582;5.298;2023-08-21T02:13:53;8.77;;;5.35;;
33826;SDS011;20128;45.582;5.298;2023-08-21T02:16:19;8.20;;;5.85;;
33826;SDS011;20128;45.582;5.298;2023-08-21T02:18:46;15.45;;;6.25;;
33826;SDS011;20128;45.582;5.298;2023-08-21T02:21:12;7.25;;;4.90;;
33826;SDS011;20128;45.582;5.298;2023-08-21T02:23:38;9.57;;;6.20;;
33826;SDS011;20128;45.582;5.298;2023-08-21T02:26:03;10.05;;;5.75;;
33826;SDS011;20128;45.582;5.298;2023-08-21T02:28:29;10.15;;;5.45;;
33826;SDS011;20128;45.582;5.298;2023-08-21T02:30:55;10.98;;;5.50;;
33826;SDS011;20128;45.582;5.298;2023-08-21T02:33:20;8.27;;;5.70;;
33826;SDS011;20128;45.582;5.298;2023-08-21T02:35:46;11.40;;;5.47;;
33826;SDS011;20128;45.582;5.298;2023-08-21T02:38:11;11.00;;;5.82;;
33826;SDS011;20128;45.582;5.298;2023-08-21T02:40:38;7.68;;;5.35;;
33826;SDS011;20128;45.582;5.298;2023-08-21T02:43:04;8.98;;;5.55;;
33826;SDS011;20128;45.582;5.298;2023-08-21T02:45:30;10.27;;;5.68;;
33826;SDS011;20128;45.582;5.298;2023-08-21T02:47:56;13.65;;;5.97;;
33826;SDS011;20128;45.582;5.298;2023-08-21T02:50:21;14.27;;;6.20;;
33826;SDS011;20128;45.582;5.298;2023-08-21T02:52:47;12.27;;;5.47;;
33826;SDS011;20128;45.582;5.298;2023-08-21T02:55:13;10.05;;;6.55;;
33826;SDS011;20128;45.582;5.298;2023-08-21T02:57:39;11.88;;;6.22;;
33826;SDS011;20128;45.582;5.298;2023-08-21T03:00:05;11.43;;;5.60;;
33826;SDS011;20128;45.582;5.298;2023-08-21T03:02:32;12.75;;;6.05;;
33826;SDS011;20128;45.582;5.298;2023-08-21T03:04:58;17.02;;;5.85;;
33826;SDS011;20128;45.582;5.298;2023-08-21T03:07:24;14.60;;;6.07;;
33826;SDS011;20128;45.582;5.298;2023-08-21T03:09:50;10.32;;;5.97;;
33826;SDS011;20128;45.582;5.298;2023-08-21T03:12:15;13.60;;;6.32;;
33826;SDS011;20128;45.582;5.298;2023-08-21T03:14:41;12.05;;;5.57;;
33826;SDS011;20128;45.582;5.298;2023-08-21T03:17:07;8.38;;;5.75;;
33826;SDS011;20128;45.582;5.298;2023-08-21T03:19:33;9.85;;;6.10;;
33826;SDS011;20128;45.582;5.298;2023-08-21T03:21:58;13.55;;;5.65;;
33826;SDS011;20128;45.582;5.298;2023-08-21T03:24:24;12.23;;;6.57;;
33826;SDS011;20128;45.582;5.298;2023-08-21T03:26:50;10.45;;;6.72;;
33826;SDS011;20128;45.582;5.298;2023-08-21T03:29:15;13.80;;;7.47;;
33826;SDS011;20128;45.582;5.298;2023-08-21T03:31:41;12.93;;;5.97;;
33826;SDS011;20128;45.582;5.298;2023-08-21T03:34:07;9.15;;;6.30;;
33826;SDS011;20128;45.582;5.298;2023-08-21T03:36:33;15.25;;;7.25;;
33826;SDS011;20128;45.582;5.298;2023-08-21T03:39:01;10.95;;;6.18;;
33826;SDS011;20128;45.582;5.298;2023-08-21T03:41:29;13.57;;;6.75;;
33826;SDS011;20128;45.582;5.298;2023-08-21T03:43:54;18.73;;;6.60;;
33826;SDS011;20128;45.582;5.298;2023-08-21T03:46:20;14.85;;;6.55;;
33826;SDS011;20128;45.582;5.298;2023-08-21T03:48:45;8.93;;;5.57;;
33826;SDS011;20128;45.582;5.298;2023-08-21T03:51:11;14.80;;;5.97;;
33826;SDS011;20128;45.582;5.298;2023-08-21T03:53:37;9.25;;;6.03;;
33826;SDS011;20128;45.582;5.298;2023-08-21T03:56:02;8.15;;;5.88;;
33826;SDS011;20128;45.582;5.298;2023-08-21T03:58:28;13.15;;;6.38;;
33826;SDS011;20128;45.582;5.298;2023-08-21T04:00:54;13.18;;;5.95;;
33826;SDS011;20128;45.582;5.298;2023-08-21T04:03:20;11.15;;;6.30;;
33826;SDS011;20128;45.582;5.298;2023-08-21T04:05:46;7.75;;;5.35;;
33826;SDS011;20128;45.582;5.298;2023-08-21T04:08:12;8.90;;;6.05;;
33826;SDS011;20128;45.582;5.298;2023-08-21T04:10:38;10.75;;;6.13;;
33826;SDS011;20128;45.582;5.298;2023-08-21T04:13:04;10.10;;;5.70;;
33826;SDS011;20128;45.582;5.298;2023-08-21T04:15:30;13.38;;;5.95;;
33826;SDS011;20128;45.582;5.298;2023-08-21T04:17:56;9.15;;;5.78;;
33826;SDS011;20128;45.582;5.298;2023-08-21T04:20:22;13.82;;;6.03;;
33826;SDS011;20128;45.582;5.298;2023-08-21T04:22:48;11.70;;;6.40;;
33826;SDS011;20128;45.582;5.298;2023-08-21T04:25:14;7.00;;;6.05;;
33826;SDS011;20128;45.582;5.298;2023-08-21T04:27:40;10.75;;;7.32;;
33826;SDS011;20128;45.582;5.298;2023-08-21T04:30:07;12.90;;;5.30;;
33826;SDS011;20128;45.582;5.298;2023-08-21T04:32:33;10.43;;;5.82;;
33826;SDS011;20128;45.582;5.298;2023-08-21T04:34:58;11.50;;;5.63;;
33826;SDS011;20128;45.582;5.298;2023-08-21T04:37:24;13.70;;;5.68;;
33826;SDS011;20128;45.582;5.298;2023-08-21T04:39:53;8.90;;;5.43;;
33826;SDS011;20128;45.582;5.298;2023-08-21T04:42:19;9.88;;;6.28;;
33826;SDS011;20128;45.582;5.298;2023-08-21T04:44:45;12.32;;;6.28;;
33826;SDS011;20128;45.582;5.298;2023-08-21T04:47:26;13.13;;;7.32;;
33826;SDS011;20128;45.582;5.298;2023-08-21T04:49:52;14.15;;;7.00;;
33826;SDS011;20128;45.582;5.298;2023-08-21T04:52:19;13.18;;;6.30;;
33826;SDS011;20128;45.582;5.298;2023-08-21T04:54:46;15.52;;;6.75;;
33826;SDS011;20128;45.582;5.298;2023-08-21T04:57:13;12.10;;;5.95;;
33826;SDS011;20128;45.582;5.298;2023-08-21T04:59:39;9.15;;;5.65;;
33826;SDS011;20128;45.582;5.298;2023-08-21T05:02:04;9.30;;;6.22;;
33826;SDS011;20128;45.582;5.298;2023-08-21T05:04:30;11.30;;;6.13;;
33826;SDS011;20128;45.582;5.298;2023-08-21T05:06:56;11.02;;;6.35;;
33826;SDS011;20128;45.582;5.298;2023-08-21T05:09:22;12.77;;;6.00;;
33826;SDS011;20128;45.582;5.298;2023-08-21T05:11:47;11.05;;;6.18;;
33826;SDS011;20128;45.582;5.298;2023-08-21T05:14:13;10.23;;;6.15;;
33826;SDS011;20128;45.582;5.298;2023-08-21T05:16:39;12.02;;;6.70;;
33826;SDS011;20128;45.582;5.298;2023-08-21T05:19:04;8.05;;;6.18;;
33826;SDS011;20128;45.582;5.298;2023-08-21T05:21:30;10.57;;;6.43;;
33826;SDS011;20128;45.582;5.298;2023-08-21T05:23:55;14.18;;;6.50;;
33826;SDS011;20128;45.582;5.298;2023-08-21T05:26:21;10.90;;;6.13;;
33826;SDS011;20128;45.582;5.298;2023-08-21T05:28:47;13.00;;;6.22;;
33826;SDS011;20128;45.582;5.298;2023-08-21T05:31:12;15.40;;;6.03;;
33826;SDS011;20128;45.582;5.298;2023-08-21T05:33:38;15.25;;;6.88;;
33826;SDS011;20128;45.582;5.298;2023-08-21T05:36:04;9.43;;;6.22;;
33826;SDS011;20128;45.582;5.298;2023-08-21T05:38:30;9.02;;;5.88;;
33826;SDS011;20128;45.582;5.298;2023-08-21T05:40:56;12.63;;;6.43;;
33826;SDS011;20128;45.582;5.298;2023-08-21T05:43:23;12.48;;;6.68;;
33826;SDS011;20128;45.582;5.298;2023-08-21T05:45:48;11.40;;;6.32;;
33826;SDS011;20128;45.582;5.298;2023-08-21T05:48:14;14.90;;;6.72;;
33826;SDS011;20128;45.582;5.298;2023-08-21T05:50:41;14.25;;;6.68;;
33826;SDS011;20128;45.582;5.298;2023-08-21T05:53:07;13.20;;;6.82;;
33826;SDS011;20128;45.582;5.298;2023-08-21T05:55:33;16.98;;;7.65;;
33826;SDS011;20128;45.582;5.298;2023-08-21T05:57:58;30.50;;;8.35;;
33826;SDS011;20128;45.582;5.298;2023-08-21T06:00:24;14.95;;;6.78;;
33826;SDS011;20128;45.582;5.298;2023-08-21T06:02:49;17.52;;;6.80;;
33826;SDS011;20128;45.582;5.298;2023-08-21T06:05:15;12.70;;;7.13;;
33826;SDS011;20128;45.582;5.298;2023-08-21T06:07:41;15.45;;;7.57;;
33826;SDS011;20128;45.582;5.298;2023-08-21T06:10:08;11.57;;;7.22;;
33826;SDS011;20128;45.582;5.298;2023-08-21T06:12:36;20.38;;;7.82;;
33826;SDS011;20128;45.582;5.298;2023-08-21T06:15:02;12.88;;;6.97;;
33826;SDS011;20128;45.582;5.298;2023-08-21T06:17:28;12.02;;;7.40;;
33826;SDS011;20128;45.582;5.298;2023-08-21T06:19:54;14.60;;;7.20;;
33826;SDS011;20128;45.582;5.298;2023-08-21T06:22:20;13.48;;;7.28;;
33826;SDS011;20128;45.582;5.298;2023-08-21T06:24:46;15.30;;;7.80;;
33826;SDS011;20128;45.582;5.298;2023-08-21T06:27:11;10.98;;;6.72;;
33826;SDS011;20128;45.582;5.298;2023-08-21T06:29:37;15.70;;;7.10;;
33826;SDS011;20128;45.582;5.298;2023-08-21T06:32:05;15.93;;;7.68;;
33826;SDS011;20128;45.582;5.298;2023-08-21T06:34:31;17.33;;;7.80;;
33826;SDS011;20128;45.582;5.298;2023-08-21T06:36:56;16.88;;;8.02;;
33826;SDS011;20128;45.582;5.298;2023-08-21T06:39:22;15.65;;;8.45;;
33826;SDS011;20128;45.582;5.298;2023-08-21T06:41:47;13.50;;;7.03;;
33826;SDS011;20128;45.582;5.298;2023-08-21T06:44:13;15.05;;;7.45;;
33826;SDS011;20128;45.582;5.298;2023-08-21T06:46:39;12.43;;;6.63;;
33826;SDS011;20128;45.582;5.298;2023-08-21T06:49:04;15.30;;;8.80;;
33826;SDS011;20128;45.582;5.298;2023-08-21T06:51:30;14.93;;;8.63;;
33826;SDS011;20128;45.582;5.298;2023-08-21T06:53:56;15.25;;;8.30;;
33826;SDS011;20128;45.582;5.298;2023-08-21T06:56:21;14.25;;;8.07;;
33826;SDS011;20128;45.582;5.298;2023-08-21T06:58:47;15.20;;;7.38;;
33826;SDS011;20128;45.582;5.298;2023-08-21T07:01:13;16.27;;;8.45;;
33826;SDS011;20128;45.582;5.298;2023-08-21T07:03:39;14.10;;;7.63;;
33826;SDS011;20128;45.582;5.298;2023-08-21T07:06:04;17.77;;;7.65;;
33826;SDS011;20128;45.582;5.298;2023-08-21T07:08:30;19.70;;;7.78;;
33826;SDS011;20128;45.582;5.298;2023-08-21T07:10:56;13.60;;;7.63;;
33826;SDS011;20128;45.582;5.298;2023-08-21T07:13:21;21.65;;;8.32;;
33826;SDS011;20128;45.582;5.298;2023-08-21T07:15:47;12.80;;;7.25;;
33826;SDS011;20128;45.582;5.298;2023-08-21T07:18:13;23.35;;;8.98;;
33826;SDS011;20128;45.582;5.298;2023-08-21T07:20:39;15.57;;;8.00;;
33826;SDS011;20128;45.582;5.298;2023-08-21T07:23:04;14.80;;;7.57;;
33826;SDS011;20128;45.582;5.298;2023-08-21T07:25:31;17.27;;;8.48;;
33826;SDS011;20128;45.582;5.298;2023-08-21T07:27:56;30.25;;;8.60;;
33826;SDS011;20128;45.582;5.298;2023-08-21T07:30:23;27.45;;;9.20;;
33826;SDS011;20128;45.582;5.298;2023-08-21T07:32:49;20.50;;;8.25;;
33826;SDS011;20128;45.582;5.298;2023-08-21T07:35:15;22.35;;;8.43;;
33826;SDS011;20128;45.582;5.298;2023-08-21T07:37:44;17.15;;;8.77;;
33826;SDS011;20128;45.582;5.298;2023-08-21T07:40:10;21.23;;;8.80;;
33826;SDS011;20128;45.582;5.298;2023-08-21T07:42:36;18.52;;;8.10;;
33826;SDS011;20128;45.582;5.298;2023-08-21T07:45:01;18.25;;;8.70;;
33826;SDS011;20128;45.582;5.298;2023-08-21T07:47:27;23.67;;;8.65;;
33826;SDS011;20128;45.582;5.298;2023-08-21T07:49:53;15.68;;;8.07;;
33826;SDS011;20128;45.582;5.298;2023-08-21T07:52:19;17.75;;;8.48;;
33826;SDS011;20128;45.582;5.298;2023-08-21T07:54:45;19.10;;;8.75;;
33826;SDS011;20128;45.582;5.298;2023-08-21T07:57:11;16.77;;;9.07;;
33826;SDS011;20128;45.582;5.298;2023-08-21T07:59:38;14.07;;;7.72;;
33826;SDS011;20128;45.582;5.298;2023-08-21T08:02:04;12.73;;;8.50;;
33826;SDS011;20128;45.582;5.298;2023-08-21T08:04:29;18.80;;;8.85;;
33826;SDS011;20128;45.582;5.298;2023-08-21T08:06:55;14.55;;;8.90;;
33826;SDS011;20128;45.582;5.298;2023-08-21T08:09:21;18.85;;;9.43;;
33826;SDS011;20128;45.582;5.298;2023-08-21T08:11:47;25.45;;;9.88;;
33826;SDS011;20128;45.582;5.298;2023-08-21T08:14:12;16.98;;;9.10;;
33826;SDS011;20128;45.582;5.298;2023-08-21T08:16:38;19.38;;;8.70;;
33826;SDS011;20128;45.582;5.298;2023-08-21T08:19:04;15.38;;;8.45;;
33826;SDS011;20128;45.582;5.298;2023-08-21T08:21:29;13.63;;;8.45;;
33826;SDS011;20128;45.582;5.298;2023-08-21T08:23:56;11.13;;;7.85;;
33826;SDS011;20128;45.582;5.298;2023-08-21T08:26:22;14.32;;;8.93;;
33826;SDS011;20128;45.582;5.298;2023-08-21T08:28:47;19.45;;;8.07;;
33826;SDS011;20128;45.582;5.298;2023-08-21T08:31:16;14.02;;;7.28;;
33826;SDS011;20128;45.582;5.298;2023-08-21T08:33:43;15.77;;;8.45;;
33826;SDS011;20128;45.582;5.298;2023-08-21T08:36:08;27.75;;;9.32;;
33826;SDS011;20128;45.582;5.298;2023-08-21T08:38:34;14.13;;;7.95;;
33826;SDS011;20128;45.582;5.298;2023-08-21T08:41:01;16.85;;;7.07;;
33826;SDS011;20128;45.582;5.298;2023-08-21T08:43:30;13.18;;;7.57;;
33826;SDS011;20128;45.582;5.298;2023-08-21T08:45:57;15.18;;;8.05;;
33826;SDS011;20128;45.582;5.298;2023-08-21T08:48:23;17.70;;;7.93;;
33826;SDS011;20128;45.582;5.298;2023-08-21T08:50:50;17.98;;;8.38;;
33826;SDS011;20128;45.582;5.298;2023-08-21T08:53:16;16.73;;;7.85;;
33826;SDS011;20128;45.582;5.298;2023-08-21T08:55:43;14.43;;;7.97;;
33826;SDS011;20128;45.582;5.298;2023-08-21T08:58:10;19.02;;;8.25;;
33826;SDS011;20128;45.582;5.298;2023-08-21T09:00:36;17.20;;;7.75;;
33826;SDS011;20128;45.582;5.298;2023-08-21T09:03:02;15.52;;;7.50;;
33826;SDS011;20128;45.582;5.298;2023-08-21T09:05:28;15.45;;;8.32;;
33826;SDS011;20128;45.582;5.298;2023-08-21T09:10:31;22.73;;;8.85;;
33826;SDS011;20128;45.582;5.298;2023-08-21T09:12:57;20.52;;;8.02;;
33826;SDS011;20128;45.582;5.298;2023-08-21T09:15:30;16.70;;;7.30;;
33826;SDS011;20128;45.582;5.298;2023-08-21T09:17:56;13.93;;;6.95;;
33826;SDS011;20128;45.582;5.298;2023-08-21T09:20:21;17.58;;;7.30;;
33826;SDS011;20128;45.582;5.298;2023-08-21T09:22:56;15.52;;;6.88;;
33826;SDS011;20128;45.582;5.298;2023-08-21T09:25:22;12.40;;;7.63;;
33826;SDS011;20128;45.582;5.298;2023-08-21T09:27:51;15.60;;;8.05;;
33826;SDS011;20128;45.582;5.298;2023-08-21T09:30:18;17.58;;;6.95;;
33826;SDS011;20128;45.582;5.298;2023-08-21T09:32:57;14.88;;;7.28;;
33826;SDS011;20128;45.582;5.298;2023-08-21T09:35:25;18.17;;;6.53;;
33826;SDS011;20128;45.582;5.298;2023-08-21T09:37:51;18.65;;;7.65;;
33826;SDS011;20128;45.582;5.298;2023-08-21T09:40:23;14.25;;;6.75;;
33826;SDS011;20128;45.582;5.298;2023-08-21T09:42:52;10.25;;;6.70;;
33826;SDS011;20128;45.582;5.298;2023-08-21T09:45:25;16.25;;;7.53;;
33826;SDS011;20128;45.582;5.298;2023-08-21T09:47:53;14.35;;;6.65;;
33826;SDS011;20128;45.582;5.298;2023-08-21T09:50:19;15.48;;;6.95;;
33826;SDS011;20128;45.582;5.298;2023-08-21T09:52:45;17.25;;;7.03;;
33826;SDS011;20128;45.582;5.298;2023-08-21T09:55:12;13.20;;;6.88;;
33826;SDS011;20128;45.582;5.298;2023-08-21T09:57:39;14.40;;;7.55;;
33826;SDS011;20128;45.582;5.298;2023-08-21T10:00:06;11.90;;;6.78;;
33826;SDS011;20128;45.582;5.298;2023-08-21T10:02:46;15.32;;;7.35;;
33826;SDS011;20128;45.582;5.298;2023-08-21T10:05:18;11.98;;;6.78;;
33826;SDS011;20128;45.582;5.298;2023-08-21T10:07:47;15.90;;;7.35;;
33826;SDS011;20128;45.582;5.298;2023-08-21T10:10:14;14.82;;;7.10;;
33826;SDS011;20128;45.582;5.298;2023-08-21T10:12:41;9.02;;;5.97;;
33826;SDS011;20128;45.582;5.298;2023-08-21T10:15:07;17.13;;;7.22;;
33826;SDS011;20128;45.582;5.298;2023-08-21T10:17:34;20.80;;;6.82;;
33826;SDS011;20128;45.582;5.298;2023-08-21T10:20:04;14.07;;;6.57;;
33826;SDS011;20128;45.582;5.298;2023-08-21T10:22:44;11.13;;;5.93;;
33826;SDS011;20128;45.582;5.298;2023-08-21T10:25:17;14.68;;;6.32;;
33826;SDS011;20128;45.582;5.298;2023-08-21T10:27:51;21.65;;;6.93;;
33826;SDS011;20128;45.582;5.298;2023-08-21T10:30:22;12.45;;;6.88;;
33826;SDS011;20128;45.582;5.298;2023-08-21T10:32:50;10.88;;;6.65;;
33826;SDS011;20128;45.582;5.298;2023-08-21T10:35:18;17.27;;;6.32;;
33826;SDS011;20128;45.582;5.298;2023-08-21T10:40:31;13.43;;;6.45;;
33826;SDS011;20128;45.582;5.298;2023-08-21T10:42:57;16.30;;;6.45;;
33826;SDS011;20128;45.582;5.298;2023-08-21T10:45:24;11.93;;;5.30;;
33826;SDS011;20128;45.582;5.298;2023-08-21T10:47:49;18.08;;;6.80;;
33826;SDS011;20128;45.582;5.298;2023-08-21T10:50:15;11.18;;;5.32;;
33826;SDS011;20128;45.582;5.298;2023-08-21T10:52:42;18.00;;;6.18;;
33826;SDS011;20128;45.582;5.298;2023-08-21T10:55:13;15.75;;;5.90;;
33826;SDS011;20128;45.582;5.298;2023-08-21T10:57:40;13.10;;;5.90;;
33826;SDS011;20128;45.582;5.298;2023-08-21T11:00:09;9.23;;;5.57;;
33826;SDS011;20128;45.582;5.298;2023-08-21T11:02:37;16.65;;;6.22;;
33826;SDS011;20128;45.582;5.298;2023-08-21T11:05:07;12.30;;;5.93;;
33826;SDS011;20128;45.582;5.298;2023-08-21T11:07:38;11.35;;;6.45;;
33826;SDS011;20128;45.582;5.298;2023-08-21T11:10:15;14.88;;;5.57;;
33826;SDS011;20128;45.582;5.298;2023-08-21T11:12:51;17.42;;;5.55;;
33826;SDS011;20128;45.582;5.298;2023-08-21T11:15:18;13.18;;;5.63;;
33826;SDS011;20128;45.582;5.298;2023-08-21T11:17:51;14.68;;;5.30;;
33826;SDS011;20128;45.582;5.298;2023-08-21T11:20:21;15.75;;;5.47;;
33826;SDS011;20128;45.582;5.298;2023-08-21T11:22:47;12.10;;;5.75;;
33826;SDS011;20128;45.582;5.298;2023-08-21T11:25:14;10.40;;;5.50;;
33826;SDS011;20128;45.582;5.298;2023-08-21T11:27:41;13.43;;;5.30;;
33826;SDS011;20128;45.582;5.298;2023-08-21T11:30:07;8.75;;;5.00;;
33826;SDS011;20128;45.582;5.298;2023-08-21T11:32:36;15.98;;;5.28;;
33826;SDS011;20128;45.582;5.298;2023-08-21T11:35:02;12.82;;;5.35;;
33826;SDS011;20128;45.582;5.298;2023-08-21T11:37:28;11.43;;;4.78;;
33826;SDS011;20128;45.582;5.298;2023-08-21T11:39:55;17.98;;;5.55;;
33826;SDS011;20128;45.582;5.298;2023-08-21T11:42:28;14.27;;;4.95;;
33826;SDS011;20128;45.582;5.298;2023-08-21T11:44:54;9.27;;;4.53;;
33826;SDS011;20128;45.582;5.298;2023-08-21T11:47:21;14.82;;;5.40;;
33826;SDS011;20128;45.582;5.298;2023-08-21T11:49:48;13.35;;;5.50;;
33826;SDS011;20128;45.582;5.298;2023-08-21T11:52:23;19.08;;;5.30;;
33826;SDS011;20128;45.582;5.298;2023-08-21T11:54:53;16.42;;;5.68;;
33826;SDS011;20128;45.582;5.298;2023-08-21T11:57:20;12.63;;;5.10;;
33826;SDS011;20128;45.582;5.298;2023-08-21T11:59:50;8.45;;;4.78;;
33826;SDS011;20128;45.582;5.298;2023-08-21T12:02:18;11.05;;;5.45;;
33826;SDS011;20128;45.582;5.298;2023-08-21T12:04:54;15.35;;;5.05;;
33826;SDS011;20128;45.582;5.298;2023-08-21T12:07:25;10.73;;;4.90;;
33826;SDS011;20128;45.582;5.298;2023-08-21T12:09:51;11.57;;;5.00;;
33826;SDS011;20128;45.582;5.298;2023-08-21T12:12:16;8.85;;;4.88;;
33826;SDS011;20128;45.582;5.298;2023-08-21T12:14:42;14.55;;;5.00;;
33826;SDS011;20128;45.582;5.298;2023-08-21T12:17:08;13.52;;;4.75;;
33826;SDS011;20128;45.582;5.298;2023-08-21T12:19:34;13.85;;;4.60;;
33826;SDS011;20128;45.582;5.298;2023-08-21T12:22:00;14.00;;;4.18;;
33826;SDS011;20128;45.582;5.298;2023-08-21T12:24:25;9.60;;;4.40;;
33826;SDS011;20128;45.582;5.298;2023-08-21T12:26:51;7.43;;;3.92;;
33826;SDS011;20128;45.582;5.298;2023-08-21T12:29:17;8.63;;;4.00;;
33826;SDS011;20128;45.582;5.298;2023-08-21T12:31:42;9.18;;;4.32;;
33826;SDS011;20128;45.582;5.298;2023-08-21T12:34:08;9.55;;;3.92;;
33826;SDS011;20128;45.582;5.298;2023-08-21T12:36:37;8.40;;;4.28;;
33826;SDS011;20128;45.582;5.298;2023-08-21T12:39:03;8.70;;;4.07;;
33826;SDS011;20128;45.582;5.298;2023-08-21T12:41:29;10.32;;;3.60;;
33826;SDS011;20128;45.582;5.298;2023-08-21T12:43:55;7.00;;;3.10;;
33826;SDS011;20128;45.582;5.298;2023-08-21T12:46:21;11.57;;;4.13;;
33826;SDS011;20128;45.582;5.298;2023-08-21T12:48:47;10.32;;;3.30;;
33826;SDS011;20128;45.582;5.298;2023-08-21T12:51:13;13.25;;;4.72;;
33826;SDS011;20128;45.582;5.298;2023-08-21T12:53:38;13.02;;;3.90;;
33826;SDS011;20128;45.582;5.298;2023-08-21T12:56:04;10.15;;;4.05;;
33826;SDS011;20128;45.582;5.298;2023-08-21T12:58:30;12.07;;;4.00;;
33826;SDS011;20128;45.582;5.298;2023-08-21T13:00:56;8.23;;;3.55;;
33826;SDS011;20128;45.582;5.298;2023-08-21T13:03:21;11.88;;;3.60;;
33826;SDS011;20128;45.582;5.298;2023-08-21T13:05:47;9.90;;;3.97;;
33826;SDS011;20128;45.582;5.298;2023-08-21T13:08:12;6.50;;;2.95;;
33826;SDS011;20128;45.582;5.298;2023-08-21T13:10:39;4.53;;;2.90;;
33826;SDS011;20128;45.582;5.298;2023-08-21T13:13:04;9.18;;;3.22;;
33826;SDS011;20128;45.582;5.298;2023-08-21T13:15:30;10.02;;;2.72;;
33826;SDS011;20128;45.582;5.298;2023-08-21T13:17:56;10.70;;;2.85;;
33826;SDS011;20128;45.582;5.298;2023-08-21T13:20:22;4.90;;;2.47;;
33826;SDS011;20128;45.582;5.298;2023-08-21T13:22:51;5.30;;;2.75;;
33826;SDS011;20128;45.582;5.298;2023-08-21T13:25:17;7.32;;;3.72;;
33826;SDS011;20128;45.582;5.298;2023-08-21T13:27:44;14.45;;;5.30;;
33826;SDS011;20128;45.582;5.298;2023-08-21T13:30:10;13.00;;;2.60;;
33826;SDS011;20128;45.582;5.298;2023-08-21T13:32:36;7.45;;;2.60;;
33826;SDS011;20128;45.582;5.298;2023-08-21T13:35:02;8.70;;;2.80;;
33826;SDS011;20128;45.582;5.298;2023-08-21T13:37:31;7.18;;;2.88;;
33826;SDS011;20128;45.582;5.298;2023-08-21T13:39:57;8.75;;;2.28;;
33826;SDS011;20128;45.582;5.298;2023-08-21T13:42:25;5.30;;;2.60;;
33826;SDS011;20128;45.582;5.298;2023-08-21T13:44:51;6.82;;;2.72;;
33826;SDS011;20128;45.582;5.298;2023-08-21T13:47:17;6.30;;;2.63;;
33826;SDS011;20128;45.582;5.298;2023-08-21T13:49:43;10.40;;;2.67;;
33826;SDS011;20128;45.582;5.298;2023-08-21T13:52:09;5.50;;;2.30;;
33826;SDS011;20128;45.582;5.298;2023-08-21T13:54:34;9.88;;;3.50;;
33826;SDS011;20128;45.582;5.298;2023-08-21T13:57:00;10.75;;;3.50;;
33826;SDS011;20128;45.582;5.298;2023-08-21T13:59:26;3.80;;;2.15;;
33826;SDS011;20128;45.582;5.298;2023-08-21T14:01:52;7.88;;;2.35;;
33826;SDS011;20128;45.582;5.298;2023-08-21T14:04:17;4.93;;;2.20;;
33826;SDS011;20128;45.582;5.298;2023-08-21T14:06:43;8.38;;;2.50;;
33826;SDS011;20128;45.582;5.298;2023-08-21T14:09:09;7.68;;;2.35;;
33826;SDS011;20128;45.582;5.298;2023-08-21T14:11:34;11.13;;;3.13;;
33826;SDS011;20128;45.582;5.298;2023-08-21T14:14:00;4.80;;;2.15;;
33826;SDS011;20128;45.582;5.298;2023-08-21T14:16:28;10.45;;;2.75;;
33826;SDS011;20128;45.582;5.298;2023-08-21T14:18:53;7.97;;;2.30;;
33826;SDS011;20128;45.582;5.298;2023-08-21T14:21:19;4.82;;;2.45;;
33826;SDS011;20128;45.582;5.298;2023-08-21T14:23:44;5.82;;;2.20;;
33826;SDS011;20128;45.582;5.298;2023-08-21T14:26:10;4.82;;;2.28;;
33826;SDS011;20128;45.582;5.298;2023-08-21T14:28:36;5.22;;;2.17;;
33826;SDS011;20128;45.582;5.298;2023-08-21T14:31:01;4.95;;;2.20;;
33826;SDS011;20128;45.582;5.298;2023-08-21T14:33:27;7.78;;;2.83;;
33826;SDS011;20128;45.582;5.298;2023-08-21T14:35:52;7.43;;;2.53;;
33826;SDS011;20128;45.582;5.298;2023-08-21T14:38:18;8.00;;;2.67;;
33826;SDS011;20128;45.582;5.298;2023-08-21T14:40:44;4.28;;;2.40;;
33826;SDS011;20128;45.582;5.298;2023-08-21T14:43:09;9.27;;;2.47;;
33826;SDS011;20128;45.582;5.298;2023-08-21T14:45:35;5.20;;;2.55;;
33826;SDS011;20128;45.582;5.298;2023-08-21T14:48:01;6.28;;;2.22;;
33826;SDS011;20128;45.582;5.298;2023-08-21T14:50:26;8.75;;;2.33;;